KISQ/ISQ METAR and TAF weather

Enter ICAO airport designator
Station Type Date Time Source
KISQ METAR 2019/12/09 05:55 UTC NOAA

KISQ 090555Z AUTO 01005KT 10SM OVC027 00/00 A2979 RMK AO2 T00001005 10018 20000


Station Type Date Time Source
KISQ Decoded METAR 2019/12/09 05:55 UTC NOAA

Manistique, Schoolcraft County Airport, MI, United States (KISQ) 45-58-29N 086-10-19W
Dec 09, 2019 - 12:55 AM EST / 2019.12.09 0555 UTC
Wind: from the N (010 degrees) at 6 MPH (5 KT):0
Visibility: 10 mile(s):0
Sky conditions: overcast
Temperature: 32.0 F (0.0 C)
Windchill: 26 F (-3 C):1
Dew Point: 31.1 F (-0.5 C)
Relative Humidity: 96%
Pressure (altimeter): 29.79 in. Hg (1008 hPa)
ob: KISQ 090555Z AUTO 01005KT 10SM OVC027 00/00 A2979 RMK AO2 T00001005 10018 20000
cycle: 6

Station Type Date Time Source
KISQ TAF UTC NOAA

Error!

Example: see airport list